sensor_id;sensor_type;location;lat;lon;timestamp;P1;durP1;ratioP1;P2;durP2;ratioP2
8952;SDS011;4511;50.890;8.054;2023-04-07T00:00:15;7.83;;;6.77;;
8952;SDS011;4511;50.890;8.054;2023-04-07T00:02:42;7.30;;;6.60;;
8952;SDS011;4511;50.890;8.054;2023-04-07T00:05:08;6.70;;;6.10;;
8952;SDS011;4511;50.890;8.054;2023-04-07T00:07:35;7.23;;;6.53;;
8952;SDS011;4511;50.890;8.054;2023-04-07T00:10:02;7.27;;;6.50;;
8952;SDS011;4511;50.890;8.054;2023-04-07T00:12:30;7.97;;;6.63;;
8952;SDS011;4511;50.890;8.054;2023-04-07T00:14:57;7.03;;;6.43;;
8952;SDS011;4511;50.890;8.054;2023-04-07T00:17:24;6.53;;;5.93;;
8952;SDS011;4511;50.890;8.054;2023-04-07T00:19:51;7.10;;;6.40;;
8952;SDS011;4511;50.890;8.054;2023-04-07T00:22:17;6.67;;;5.97;;
8952;SDS011;4511;50.890;8.054;2023-04-07T00:24:44;7.43;;;6.60;;
8952;SDS011;4511;50.890;8.054;2023-04-07T00:27:11;6.83;;;6.13;;
8952;SDS011;4511;50.890;8.054;2023-04-07T00:29:39;7.27;;;6.57;;
8952;SDS011;4511;50.890;8.054;2023-04-07T00:32:07;6.60;;;6.00;;
8952;SDS011;4511;50.890;8.054;2023-04-07T00:34:34;6.70;;;6.10;;
8952;SDS011;4511;50.890;8.054;2023-04-07T00:37:01;6.33;;;5.73;;
8952;SDS011;4511;50.890;8.054;2023-04-07T00:39:27;6.53;;;5.93;;
8952;SDS011;4511;50.890;8.054;2023-04-07T00:41:55;6.70;;;6.10;;
8952;SDS011;4511;50.890;8.054;2023-04-07T00:44:22;6.90;;;6.30;;
8952;SDS011;4511;50.890;8.054;2023-04-07T00:46:50;6.63;;;6.03;;
8952;SDS011;4511;50.890;8.054;2023-04-07T00:49:16;7.10;;;6.40;;
8952;SDS011;4511;50.890;8.054;2023-04-07T00:51:43;6.77;;;6.10;;
8952;SDS011;4511;50.890;8.054;2023-04-07T00:54:11;7.20;;;6.50;;
8952;SDS011;4511;50.890;8.054;2023-04-07T00:56:38;6.40;;;5.90;;
8952;SDS011;4511;50.890;8.054;2023-04-07T00:59:05;6.63;;;6.03;;
8952;SDS011;4511;50.890;8.054;2023-04-07T01:01:34;6.63;;;6.03;;
8952;SDS011;4511;50.890;8.054;2023-04-07T01:04:08;6.63;;;6.03;;
8952;SDS011;4511;50.890;8.054;2023-04-07T01:06:44;7.13;;;6.53;;
8952;SDS011;4511;50.890;8.054;2023-04-07T01:09:15;7.10;;;6.50;;
8952;SDS011;4511;50.890;8.054;2023-04-07T01:11:47;6.97;;;6.37;;
8952;SDS011;4511;50.890;8.054;2023-04-07T01:14:20;7.40;;;6.70;;
8952;SDS011;4511;50.890;8.054;2023-04-07T01:16:49;6.67;;;6.07;;
8952;SDS011;4511;50.890;8.054;2023-04-07T01:19:22;6.67;;;6.03;;
8952;SDS011;4511;50.890;8.054;2023-04-07T01:21:59;6.77;;;6.13;;
8952;SDS011;4511;50.890;8.054;2023-04-07T01:24:52;7.00;;;6.30;;
8952;SDS011;4511;50.890;8.054;2023-04-07T01:27:31;6.97;;;6.37;;
8952;SDS011;4511;50.890;8.054;2023-04-07T01:30:03;6.83;;;6.23;;
8952;SDS011;4511;50.890;8.054;2023-04-07T01:32:35;7.53;;;6.27;;
8952;SDS011;4511;50.890;8.054;2023-04-07T01:35:05;6.73;;;6.13;;
8952;SDS011;4511;50.890;8.054;2023-04-07T01:37:36;6.10;;;5.60;;
8952;SDS011;4511;50.890;8.054;2023-04-07T01:40:05;6.23;;;5.63;;
8952;SDS011;4511;50.890;8.054;2023-04-07T01:42:34;6.20;;;5.70;;
8952;SDS011;4511;50.890;8.054;2023-04-07T01:45:05;6.27;;;5.53;;
8952;SDS011;4511;50.890;8.054;2023-04-07T01:47:33;6.50;;;5.90;;
8952;SDS011;4511;50.890;8.054;2023-04-07T01:50:02;6.43;;;5.83;;
8952;SDS011;4511;50.890;8.054;2023-04-07T01:52:31;6.67;;;6.07;;
8952;SDS011;4511;50.890;8.054;2023-04-07T01:54:59;6.33;;;5.77;;
8952;SDS011;4511;50.890;8.054;2023-04-07T01:57:26;6.20;;;5.60;;
8952;SDS011;4511;50.890;8.054;2023-04-07T01:59:53;6.50;;;6.00;;
8952;SDS011;4511;50.890;8.054;2023-04-07T02:02:21;6.83;;;6.20;;
8952;SDS011;4511;50.890;8.054;2023-04-07T02:04:51;6.37;;;5.87;;
8952;SDS011;4511;50.890;8.054;2023-04-07T02:07:21;6.63;;;6.03;;
8952;SDS011;4511;50.890;8.054;2023-04-07T02:09:53;6.23;;;5.73;;
8952;SDS011;4511;50.890;8.054;2023-04-07T02:12:24;6.67;;;6.07;;
8952;SDS011;4511;50.890;8.054;2023-04-07T02:14:53;6.87;;;6.27;;
8952;SDS011;4511;50.890;8.054;2023-04-07T02:17:22;6.70;;;6.10;;
8952;SDS011;4511;50.890;8.054;2023-04-07T02:19:50;6.63;;;6.03;;
8952;SDS011;4511;50.890;8.054;2023-04-07T02:22:19;6.77;;;6.17;;
8952;SDS011;4511;50.890;8.054;2023-04-07T02:24:45;6.87;;;6.20;;
8952;SDS011;4511;50.890;8.054;2023-04-07T02:27:12;7.10;;;6.40;;
8952;SDS011;4511;50.890;8.054;2023-04-07T02:29:39;7.10;;;6.40;;
8952;SDS011;4511;50.890;8.054;2023-04-07T02:32:06;7.73;;;7.00;;
8952;SDS011;4511;50.890;8.054;2023-04-07T02:34:34;7.60;;;6.90;;
8952;SDS011;4511;50.890;8.054;2023-04-07T02:37:01;7.20;;;6.50;;
8952;SDS011;4511;50.890;8.054;2023-04-07T02:39:28;7.20;;;6.50;;
8952;SDS011;4511;50.890;8.054;2023-04-07T02:41:55;7.63;;;6.93;;
8952;SDS011;4511;50.890;8.054;2023-04-07T02:44:22;7.17;;;6.50;;
8952;SDS011;4511;50.890;8.054;2023-04-07T02:46:49;8.40;;;7.60;;
8952;SDS011;4511;50.890;8.054;2023-04-07T02:49:16;6.80;;;6.10;;
8952;SDS011;4511;50.890;8.054;2023-04-07T02:51:44;7.40;;;6.70;;
8952;SDS011;4511;50.890;8.054;2023-04-07T02:54:11;7.70;;;7.00;;
8952;SDS011;4511;50.890;8.054;2023-04-07T02:56:38;8.07;;;7.27;;
8952;SDS011;4511;50.890;8.054;2023-04-07T02:59:04;8.20;;;7.40;;
8952;SDS011;4511;50.890;8.054;2023-04-07T03:01:31;7.77;;;7.00;;
8952;SDS011;4511;50.890;8.054;2023-04-07T03:03:58;8.63;;;7.83;;
8952;SDS011;4511;50.890;8.054;2023-04-07T03:06:25;7.87;;;7.07;;
8952;SDS011;4511;50.890;8.054;2023-04-07T03:08:53;7.30;;;6.60;;
8952;SDS011;4511;50.890;8.054;2023-04-07T03:11:20;7.83;;;7.10;;
8952;SDS011;4511;50.890;8.054;2023-04-07T03:13:47;7.50;;;6.63;;
8952;SDS011;4511;50.890;8.054;2023-04-07T03:16:14;8.03;;;7.23;;
8952;SDS011;4511;50.890;8.054;2023-04-07T03:18:41;7.53;;;6.83;;
8952;SDS011;4511;50.890;8.054;2023-04-07T03:21:07;7.63;;;6.93;;
8952;SDS011;4511;50.890;8.054;2023-04-07T03:23:34;7.47;;;6.77;;
8952;SDS011;4511;50.890;8.054;2023-04-07T03:26:02;8.03;;;6.70;;
8952;SDS011;4511;50.890;8.054;2023-04-07T03:28:29;7.20;;;6.50;;
8952;SDS011;4511;50.890;8.054;2023-04-07T03:30:56;7.40;;;6.70;;
8952;SDS011;4511;50.890;8.054;2023-04-07T03:33:23;7.30;;;6.60;;
8952;SDS011;4511;50.890;8.054;2023-04-07T03:35:49;7.37;;;6.67;;
8952;SDS011;4511;50.890;8.054;2023-04-07T03:38:16;7.30;;;6.60;;
8952;SDS011;4511;50.890;8.054;2023-04-07T03:40:43;7.50;;;6.80;;
8952;SDS011;4511;50.890;8.054;2023-04-07T03:43:11;7.10;;;6.40;;
8952;SDS011;4511;50.890;8.054;2023-04-07T03:45:39;6.57;;;5.97;;
8952;SDS011;4511;50.890;8.054;2023-04-07T03:48:06;7.10;;;6.50;;
8952;SDS011;4511;50.890;8.054;2023-04-07T03:50:36;6.20;;;5.70;;
8952;SDS011;4511;50.890;8.054;2023-04-07T03:53:02;7.10;;;6.40;;
8952;SDS011;4511;50.890;8.054;2023-04-07T03:55:29;6.73;;;6.13;;
8952;SDS011;4511;50.890;8.054;2023-04-07T03:57:56;6.70;;;6.00;;
8952;SDS011;4511;50.890;8.054;2023-04-07T04:00:24;7.40;;;6.70;;
8952;SDS011;4511;50.890;8.054;2023-04-07T04:02:51;7.17;;;6.57;;
8952;SDS011;4511;50.890;8.054;2023-04-07T04:05:18;7.20;;;6.60;;
8952;SDS011;4511;50.890;8.054;2023-04-07T04:07:45;7.23;;;6.57;;
8952;SDS011;4511;50.890;8.054;2023-04-07T04:10:12;6.77;;;6.17;;
8952;SDS011;4511;50.890;8.054;2023-04-07T04:12:40;7.00;;;6.30;;
8952;SDS011;4511;50.890;8.054;2023-04-07T04:15:07;7.73;;;7.03;;
8952;SDS011;4511;50.890;8.054;2023-04-07T04:17:36;6.90;;;6.30;;
8952;SDS011;4511;50.890;8.054;2023-04-07T04:20:03;6.90;;;6.30;;
8952;SDS011;4511;50.890;8.054;2023-04-07T04:22:30;6.43;;;5.93;;
8952;SDS011;4511;50.890;8.054;2023-04-07T04:24:57;7.90;;;6.73;;
8952;SDS011;4511;50.890;8.054;2023-04-07T04:27:24;7.97;;;6.83;;
8952;SDS011;4511;50.890;8.054;2023-04-07T04:29:51;6.80;;;6.20;;
8952;SDS011;4511;50.890;8.054;2023-04-07T04:32:18;6.90;;;6.30;;
8952;SDS011;4511;50.890;8.054;2023-04-07T04:34:47;6.90;;;6.30;;
8952;SDS011;4511;50.890;8.054;2023-04-07T04:37:15;7.10;;;6.50;;
8952;SDS011;4511;50.890;8.054;2023-04-07T04:39:42;7.30;;;6.60;;
8952;SDS011;4511;50.890;8.054;2023-04-07T04:42:09;7.03;;;6.30;;
8952;SDS011;4511;50.890;8.054;2023-04-07T04:44:36;6.80;;;6.20;;
8952;SDS011;4511;50.890;8.054;2023-04-07T04:47:02;6.60;;;6.00;;
8952;SDS011;4511;50.890;8.054;2023-04-07T04:49:29;7.00;;;6.40;;
8952;SDS011;4511;50.890;8.054;2023-04-07T04:51:57;6.87;;;6.27;;
8952;SDS011;4511;50.890;8.054;2023-04-07T04:54:24;6.53;;;5.93;;
8952;SDS011;4511;50.890;8.054;2023-04-07T04:56:51;6.53;;;5.93;;
8952;SDS011;4511;50.890;8.054;2023-04-07T04:59:17;6.93;;;6.33;;
8952;SDS011;4511;50.890;8.054;2023-04-07T05:01:44;6.57;;;5.97;;
8952;SDS011;4511;50.890;8.054;2023-04-07T05:04:11;7.40;;;6.70;;
8952;SDS011;4511;50.890;8.054;2023-04-07T05:06:37;7.03;;;6.33;;
8952;SDS011;4511;50.890;8.054;2023-04-07T05:09:06;7.27;;;6.57;;
8952;SDS011;4511;50.890;8.054;2023-04-07T05:11:32;7.10;;;6.33;;
8952;SDS011;4511;50.890;8.054;2023-04-07T05:13:59;7.70;;;7.00;;
8952;SDS011;4511;50.890;8.054;2023-04-07T05:16:26;6.77;;;6.13;;
8952;SDS011;4511;50.890;8.054;2023-04-07T05:18:53;6.63;;;6.03;;
8952;SDS011;4511;50.890;8.054;2023-04-07T05:21:19;7.37;;;6.60;;
8952;SDS011;4511;50.890;8.054;2023-04-07T05:23:46;7.10;;;6.43;;
8952;SDS011;4511;50.890;8.054;2023-04-07T05:26:14;7.03;;;6.43;;
8952;SDS011;4511;50.890;8.054;2023-04-07T05:28:41;7.83;;;7.10;;
8952;SDS011;4511;50.890;8.054;2023-04-07T05:31:08;7.50;;;6.80;;
8952;SDS011;4511;50.890;8.054;2023-04-07T05:33:34;7.90;;;7.13;;
8952;SDS011;4511;50.890;8.054;2023-04-07T05:36:01;6.97;;;6.37;;
8952;SDS011;4511;50.890;8.054;2023-04-07T05:38:28;7.60;;;6.90;;
8952;SDS011;4511;50.890;8.054;2023-04-07T05:40:55;7.97;;;7.17;;
8952;SDS011;4511;50.890;8.054;2023-04-07T05:43:23;6.97;;;6.37;;
8952;SDS011;4511;50.890;8.054;2023-04-07T05:45:50;7.67;;;6.97;;
8952;SDS011;4511;50.890;8.054;2023-04-07T05:48:17;7.07;;;6.47;;
8952;SDS011;4511;50.890;8.054;2023-04-07T05:50:43;7.70;;;6.90;;
8952;SDS011;4511;50.890;8.054;2023-04-07T05:53:10;6.77;;;6.17;;
8952;SDS011;4511;50.890;8.054;2023-04-07T05:55:37;7.30;;;6.60;;
8952;SDS011;4511;50.890;8.054;2023-04-07T05:58:03;6.93;;;6.33;;
8952;SDS011;4511;50.890;8.054;2023-04-07T06:00:32;7.10;;;6.50;;
8952;SDS011;4511;50.890;8.054;2023-04-07T06:02:58;7.77;;;6.97;;
8952;SDS011;4511;50.890;8.054;2023-04-07T06:05:25;7.53;;;6.83;;
8952;SDS011;4511;50.890;8.054;2023-04-07T06:07:52;7.77;;;6.97;;
8952;SDS011;4511;50.890;8.054;2023-04-07T06:10:20;7.03;;;6.33;;
8952;SDS011;4511;50.890;8.054;2023-04-07T06:12:47;7.83;;;7.03;;
8952;SDS011;4511;50.890;8.054;2023-04-07T06:15:14;7.40;;;6.70;;
8952;SDS011;4511;50.890;8.054;2023-04-07T06:17:42;6.73;;;6.13;;
8952;SDS011;4511;50.890;8.054;2023-04-07T06:20:10;6.70;;;6.10;;
8952;SDS011;4511;50.890;8.054;2023-04-07T06:22:37;7.40;;;6.70;;
8952;SDS011;4511;50.890;8.054;2023-04-07T06:25:04;6.60;;;6.00;;
8952;SDS011;4511;50.890;8.054;2023-04-07T06:27:32;6.60;;;6.00;;
8952;SDS011;4511;50.890;8.054;2023-04-07T06:29:58;7.13;;;6.43;;
8952;SDS011;4511;50.890;8.054;2023-04-07T06:32:25;6.93;;;6.23;;
8952;SDS011;4511;50.890;8.054;2023-04-07T06:34:53;6.93;;;6.30;;
8952;SDS011;4511;50.890;8.054;2023-04-07T06:37:20;7.10;;;6.50;;
8952;SDS011;4511;50.890;8.054;2023-04-07T06:39:48;7.20;;;6.50;;
8952;SDS011;4511;50.890;8.054;2023-04-07T06:42:15;6.87;;;6.27;;
8952;SDS011;4511;50.890;8.054;2023-04-07T06:44:42;6.77;;;6.10;;
8952;SDS011;4511;50.890;8.054;2023-04-07T06:47:09;6.63;;;6.03;;
8952;SDS011;4511;50.890;8.054;2023-04-07T06:49:36;6.00;;;5.50;;
8952;SDS011;4511;50.890;8.054;2023-04-07T06:52:04;6.13;;;5.57;;
8952;SDS011;4511;50.890;8.054;2023-04-07T06:54:31;6.57;;;5.97;;
8952;SDS011;4511;50.890;8.054;2023-04-07T06:56:58;6.10;;;5.60;;
8952;SDS011;4511;50.890;8.054;2023-04-07T06:59:25;6.50;;;5.90;;
8952;SDS011;4511;50.890;8.054;2023-04-07T07:01:52;5.57;;;5.07;;
8952;SDS011;4511;50.890;8.054;2023-04-07T07:04:19;7.50;;;6.33;;
8952;SDS011;4511;50.890;8.054;2023-04-07T07:06:45;6.30;;;5.70;;
8952;SDS011;4511;50.890;8.054;2023-04-07T07:09:13;7.53;;;6.37;;
8952;SDS011;4511;50.890;8.054;2023-04-07T07:11:40;5.87;;;5.37;;
8952;SDS011;4511;50.890;8.054;2023-04-07T07:14:07;6.90;;;5.77;;
8952;SDS011;4511;50.890;8.054;2023-04-07T07:16:34;6.10;;;5.50;;
8952;SDS011;4511;50.890;8.054;2023-04-07T07:19:01;5.80;;;5.30;;
8952;SDS011;4511;50.890;8.054;2023-04-07T07:21:27;6.10;;;5.43;;
8952;SDS011;4511;50.890;8.054;2023-04-07T07:23:55;6.00;;;5.50;;
8952;SDS011;4511;50.890;8.054;2023-04-07T07:26:23;5.23;;;4.83;;
8952;SDS011;4511;50.890;8.054;2023-04-07T07:28:50;5.93;;;5.43;;
8952;SDS011;4511;50.890;8.054;2023-04-07T07:31:17;7.50;;;6.80;;
8952;SDS011;4511;50.890;8.054;2023-04-07T07:33:44;6.50;;;5.77;;
8952;SDS011;4511;50.890;8.054;2023-04-07T07:36:13;5.60;;;5.10;;
8952;SDS011;4511;50.890;8.054;2023-04-07T07:38:39;5.60;;;5.20;;
8952;SDS011;4511;50.890;8.054;2023-04-07T07:41:06;5.10;;;4.70;;
8952;SDS011;4511;50.890;8.054;2023-04-07T07:43:34;4.97;;;4.57;;
8952;SDS011;4511;50.890;8.054;2023-04-07T07:46:01;5.10;;;4.70;;
8952;SDS011;4511;50.890;8.054;2023-04-07T07:48:28;5.20;;;4.80;;
8952;SDS011;4511;50.890;8.054;2023-04-07T07:50:55;4.77;;;4.30;;
8952;SDS011;4511;50.890;8.054;2023-04-07T07:53:22;5.00;;;4.60;;
8952;SDS011;4511;50.890;8.054;2023-04-07T07:55:48;4.87;;;4.47;;
8952;SDS011;4511;50.890;8.054;2023-04-07T07:58:15;4.80;;;4.40;;
8952;SDS011;4511;50.890;8.054;2023-04-07T08:00:43;4.63;;;4.30;;
8952;SDS011;4511;50.890;8.054;2023-04-07T08:03:10;4.73;;;4.33;;
8952;SDS011;4511;50.890;8.054;2023-04-07T08:05:37;4.80;;;4.47;;
8952;SDS011;4511;50.890;8.054;2023-04-07T08:08:04;4.30;;;4.00;;
8952;SDS011;4511;50.890;8.054;2023-04-07T08:10:32;4.30;;;4.00;;
8952;SDS011;4511;50.890;8.054;2023-04-07T08:12:58;4.30;;;3.90;;
8952;SDS011;4511;50.890;8.054;2023-04-07T08:15:25;4.30;;;3.97;;
8952;SDS011;4511;50.890;8.054;2023-04-07T08:17:53;4.47;;;4.17;;
8952;SDS011;4511;50.890;8.054;2023-04-07T08:20:20;4.50;;;4.20;;
8952;SDS011;4511;50.890;8.054;2023-04-07T08:22:47;4.80;;;4.40;;
8952;SDS011;4511;50.890;8.054;2023-04-07T08:25:14;4.40;;;4.10;;
8952;SDS011;4511;50.890;8.054;2023-04-07T08:27:41;5.30;;;4.90;;
8952;SDS011;4511;50.890;8.054;2023-04-07T08:30:08;5.13;;;4.73;;
8952;SDS011;4511;50.890;8.054;2023-04-07T08:32:35;3.97;;;3.67;;
8952;SDS011;4511;50.890;8.054;2023-04-07T08:35:04;3.80;;;3.50;;
8952;SDS011;4511;50.890;8.054;2023-04-07T08:37:32;3.70;;;3.40;;
8952;SDS011;4511;50.890;8.054;2023-04-07T08:39:59;3.90;;;3.60;;
8952;SDS011;4511;50.890;8.054;2023-04-07T08:42:26;3.67;;;3.37;;
8952;SDS011;4511;50.890;8.054;2023-04-07T08:44:55;3.47;;;3.27;;
8952;SDS011;4511;50.890;8.054;2023-04-07T08:47:24;3.43;;;3.23;;
8952;SDS011;4511;50.890;8.054;2023-04-07T08:49:53;3.13;;;2.93;;
8952;SDS011;4511;50.890;8.054;2023-04-07T08:52:27;2.80;;;2.60;;
8952;SDS011;4511;50.890;8.054;2023-04-07T08:55:00;3.63;;;3.33;;
8952;SDS011;4511;50.890;8.054;2023-04-07T08:57:31;3.80;;;3.50;;
8952;SDS011;4511;50.890;8.054;2023-04-07T08:59:58;3.20;;;3.00;;
8952;SDS011;4511;50.890;8.054;2023-04-07T09:02:30;3.07;;;2.87;;
8952;SDS011;4511;50.890;8.054;2023-04-07T09:04:58;3.00;;;2.80;;
8952;SDS011;4511;50.890;8.054;2023-04-07T09:07:27;3.20;;;3.00;;
8952;SDS011;4511;50.890;8.054;2023-04-07T09:09:53;3.20;;;2.90;;
8952;SDS011;4511;50.890;8.054;2023-04-07T09:12:21;3.30;;;3.10;;
8952;SDS011;4511;50.890;8.054;2023-04-07T09:14:47;3.07;;;2.87;;
8952;SDS011;4511;50.890;8.054;2023-04-07T09:17:14;3.20;;;3.00;;
8952;SDS011;4511;50.890;8.054;2023-04-07T09:19:41;3.00;;;2.80;;
8952;SDS011;4511;50.890;8.054;2023-04-07T09:22:08;3.10;;;2.90;;
8952;SDS011;4511;50.890;8.054;2023-04-07T09:24:40;3.00;;;2.80;;
8952;SDS011;4511;50.890;8.054;2023-04-07T09:27:08;3.27;;;3.07;;
8952;SDS011;4511;50.890;8.054;2023-04-07T09:29:36;2.90;;;2.70;;
8952;SDS011;4511;50.890;8.054;2023-04-07T09:32:03;2.60;;;2.50;;
8952;SDS011;4511;50.890;8.054;2023-04-07T09:34:31;2.53;;;2.43;;
8952;SDS011;4511;50.890;8.054;2023-04-07T09:36:58;2.80;;;2.70;;
8952;SDS011;4511;50.890;8.054;2023-04-07T09:39:26;3.00;;;2.80;;
8952;SDS011;4511;50.890;8.054;2023-04-07T09:41:54;2.40;;;2.30;;
8952;SDS011;4511;50.890;8.054;2023-04-07T09:44:22;2.70;;;2.60;;
8952;SDS011;4511;50.890;8.054;2023-04-07T09:46:50;2.97;;;2.77;;
8952;SDS011;4511;50.890;8.054;2023-04-07T09:49:18;3.30;;;3.10;;
8952;SDS011;4511;50.890;8.054;2023-04-07T09:51:52;3.73;;;3.53;;
8952;SDS011;4511;50.890;8.054;2023-04-07T09:54:30;4.30;;;3.90;;
8952;SDS011;4511;50.890;8.054;2023-04-07T09:57:01;3.10;;;2.90;;
8952;SDS011;4511;50.890;8.054;2023-04-07T09:59:29;3.50;;;3.30;;
8952;SDS011;4511;50.890;8.054;2023-04-07T10:01:57;5.10;;;4.70;;
8952;SDS011;4511;50.890;8.054;2023-04-07T10:04:25;4.60;;;4.20;;
8952;SDS011;4511;50.890;8.054;2023-04-07T10:06:53;3.20;;;3.00;;
8952;SDS011;4511;50.890;8.054;2023-04-07T10:09:20;3.40;;;3.20;;
8952;SDS011;4511;50.890;8.054;2023-04-07T10:11:49;3.03;;;2.83;;
8952;SDS011;4511;50.890;8.054;2023-04-07T10:14:19;4.13;;;3.87;;
8952;SDS011;4511;50.890;8.054;2023-04-07T10:16:48;3.23;;;2.80;;
8952;SDS011;4511;50.890;8.054;2023-04-07T10:19:15;2.83;;;2.73;;
8952;SDS011;4511;50.890;8.054;2023-04-07T10:21:44;2.93;;;2.80;;
8952;SDS011;4511;50.890;8.054;2023-04-07T10:24:16;2.60;;;2.50;;
8952;SDS011;4511;50.890;8.054;2023-04-07T10:26:59;2.60;;;2.50;;
8952;SDS011;4511;50.890;8.054;2023-04-07T10:29:33;2.60;;;2.50;;
8952;SDS011;4511;50.890;8.054;2023-04-07T10:32:02;2.63;;;2.43;;
8952;SDS011;4511;50.890;8.054;2023-04-07T10:37:22;3.40;;;3.20;;
8952;SDS011;4511;50.890;8.054;2023-04-07T10:39:50;3.60;;;3.40;;
8952;SDS011;4511;50.890;8.054;2023-04-07T10:42:43;5.73;;;5.33;;
8952;SDS011;4511;50.890;8.054;2023-04-07T10:45:12;9.10;;;8.00;;
8952;SDS011;4511;50.890;8.054;2023-04-07T10:50:36;2.73;;;2.63;;
8952;SDS011;4511;50.890;8.054;2023-04-07T10:53:04;3.27;;;3.07;;
8952;SDS011;4511;50.890;8.054;2023-04-07T10:55:36;3.10;;;2.90;;
8952;SDS011;4511;50.890;8.054;2023-04-07T10:58:12;3.40;;;3.20;;
8952;SDS011;4511;50.890;8.054;2023-04-07T11:03:57;3.43;;;3.23;;
8952;SDS011;4511;50.890;8.054;2023-04-07T11:06:25;2.53;;;2.43;;
8952;SDS011;4511;50.890;8.054;2023-04-07T11:08:52;5.93;;;5.43;;
8952;SDS011;4511;50.890;8.054;2023-04-07T11:11:34;7.60;;;6.90;;
8952;SDS011;4511;50.890;8.054;2023-04-07T11:14:04;5.00;;;4.50;;
8952;SDS011;4511;50.890;8.054;2023-04-07T11:16:41;3.40;;;3.20;;
8952;SDS011;4511;50.890;8.054;2023-04-07T11:19:10;7.47;;;5.57;;
8952;SDS011;4511;50.890;8.054;2023-04-07T11:21:37;4.10;;;3.80;;
8952;SDS011;4511;50.890;8.054;2023-04-07T11:24:04;3.80;;;3.50;;
8952;SDS011;4511;50.890;8.054;2023-04-07T11:26:35;2.47;;;2.37;;
8952;SDS011;4511;50.890;8.054;2023-04-07T11:29:03;2.00;;;1.90;;
8952;SDS011;4511;50.890;8.054;2023-04-07T11:31:30;2.40;;;2.30;;
8952;SDS011;4511;50.890;8.054;2023-04-07T11:33:57;2.30;;;2.20;;
8952;SDS011;4511;50.890;8.054;2023-04-07T11:36:27;2.80;;;2.60;;
8952;SDS011;4511;50.890;8.054;2023-04-07T11:38:55;2.50;;;2.30;;
8952;SDS011;4511;50.890;8.054;2023-04-07T11:41:22;2.20;;;2.10;;
8952;SDS011;4511;50.890;8.054;2023-04-07T11:44:07;2.23;;;2.13;;
8952;SDS011;4511;50.890;8.054;2023-04-07T11:46:35;2.33;;;2.23;;
8952;SDS011;4511;50.890;8.054;2023-04-07T11:49:09;2.30;;;2.20;;
8952;SDS011;4511;50.890;8.054;2023-04-07T11:51:38;3.40;;;2.90;;
8952;SDS011;4511;50.890;8.054;2023-04-07T11:54:06;2.40;;;2.30;;
8952;SDS011;4511;50.890;8.054;2023-04-07T11:56:43;2.93;;;2.73;;
8952;SDS011;4511;50.890;8.054;2023-04-07T11:59:20;2.10;;;2.00;;
8952;SDS011;4511;50.890;8.054;2023-04-07T12:01:48;2.77;;;2.60;;
8952;SDS011;4511;50.890;8.054;2023-04-07T12:04:15;2.30;;;2.20;;
8952;SDS011;4511;50.890;8.054;2023-04-07T12:06:44;2.20;;;2.10;;
8952;SDS011;4511;50.890;8.054;2023-04-07T12:09:24;2.40;;;2.30;;
8952;SDS011;4511;50.890;8.054;2023-04-07T12:11:53;2.30;;;2.20;;
8952;SDS011;4511;50.890;8.054;2023-04-07T12:14:21;2.40;;;2.30;;
8952;SDS011;4511;50.890;8.054;2023-04-07T12:16:48;2.50;;;2.30;;
8952;SDS011;4511;50.890;8.054;2023-04-07T12:19:16;2.20;;;2.10;;
8952;SDS011;4511;50.890;8.054;2023-04-07T12:21:44;2.10;;;2.00;;
8952;SDS011;4511;50.890;8.054;2023-04-07T12:24:11;2.13;;;2.03;;
8952;SDS011;4511;50.890;8.054;2023-04-07T12:26:37;2.20;;;2.00;;
8952;SDS011;4511;50.890;8.054;2023-04-07T12:29:04;1.87;;;1.77;;
8952;SDS011;4511;50.890;8.054;2023-04-07T12:31:31;1.70;;;1.70;;
8952;SDS011;4511;50.890;8.054;2023-04-07T12:33:58;1.80;;;1.70;;
8952;SDS011;4511;50.890;8.054;2023-04-07T12:36:25;1.90;;;1.80;;
8952;SDS011;4511;50.890;8.054;2023-04-07T12:38:54;1.93;;;1.83;;
8952;SDS011;4511;50.890;8.054;2023-04-07T12:41:21;2.20;;;2.10;;
8952;SDS011;4511;50.890;8.054;2023-04-07T12:43:49;1.93;;;1.83;;
8952;SDS011;4511;50.890;8.054;2023-04-07T12:46:15;2.27;;;1.87;;
8952;SDS011;4511;50.890;8.054;2023-04-07T12:48:42;2.27;;;2.07;;
8952;SDS011;4511;50.890;8.054;2023-04-07T12:51:09;1.90;;;1.80;;
8952;SDS011;4511;50.890;8.054;2023-04-07T12:53:36;2.17;;;2.07;;
8952;SDS011;4511;50.890;8.054;2023-04-07T12:56:05;1.77;;;1.70;;
8952;SDS011;4511;50.890;8.054;2023-04-07T12:58:32;2.00;;;1.90;;
8952;SDS011;4511;50.890;8.054;2023-04-07T13:00:58;2.20;;;2.10;;
8952;SDS011;4511;50.890;8.054;2023-04-07T13:03:25;2.00;;;1.90;;
8952;SDS011;4511;50.890;8.054;2023-04-07T13:05:52;2.20;;;2.10;;
8952;SDS011;4511;50.890;8.054;2023-04-07T13:08:19;2.10;;;2.00;;
8952;SDS011;4511;50.890;8.054;2023-04-07T13:10:46;2.20;;;2.10;;
8952;SDS011;4511;50.890;8.054;2023-04-07T13:13:14;2.30;;;2.20;;
8952;SDS011;4511;50.890;8.054;2023-04-07T13:15:41;2.20;;;2.10;;
8952;SDS011;4511;50.890;8.054;2023-04-07T13:18:08;2.20;;;2.10;;
8952;SDS011;4511;50.890;8.054;2023-04-07T13:20:35;2.13;;;1.93;;
8952;SDS011;4511;50.890;8.054;2023-04-07T13:23:02;2.40;;;2.20;;
8952;SDS011;4511;50.890;8.054;2023-04-07T13:25:28;2.33;;;2.10;;
8952;SDS011;4511;50.890;8.054;2023-04-07T13:27:55;2.30;;;2.10;;
8952;SDS011;4511;50.890;8.054;2023-04-07T13:30:25;2.23;;;2.13;;
8952;SDS011;4511;50.890;8.054;2023-04-07T13:32:51;2.17;;;2.07;;
8952;SDS011;4511;50.890;8.054;2023-04-07T13:35:18;2.20;;;2.10;;
8952;SDS011;4511;50.890;8.054;2023-04-07T13:37:45;2.10;;;2.00;;
8952;SDS011;4511;50.890;8.054;2023-04-07T13:40:12;2.00;;;1.80;;
8952;SDS011;4511;50.890;8.054;2023-04-07T13:42:39;2.00;;;1.90;;
8952;SDS011;4511;50.890;8.054;2023-04-07T13:45:06;2.00;;;1.90;;
8952;SDS011;4511;50.890;8.054;2023-04-07T13:47:35;2.10;;;2.00;;
8952;SDS011;4511;50.890;8.054;2023-04-07T13:50:02;2.20;;;2.10;;
8952;SDS011;4511;50.890;8.054;2023-04-07T13:52:30;2.40;;;2.30;;
8952;SDS011;4511;50.890;8.054;2023-04-07T13:54:59;2.43;;;2.30;;
8952;SDS011;4511;50.890;8.054;2023-04-07T13:57:26;2.00;;;1.90;;
8952;SDS011;4511;50.890;8.054;2023-04-07T13:59:53;2.40;;;2.30;;
8952;SDS011;4511;50.890;8.054;2023-04-07T14:02:19;2.00;;;1.90;;
8952;SDS011;4511;50.890;8.054;2023-04-07T14:04:49;1.90;;;1.80;;
8952;SDS011;4511;50.890;8.054;2023-04-07T14:07:16;2.30;;;2.20;;
8952;SDS011;4511;50.890;8.054;2023-04-07T14:09:43;2.53;;;2.33;;
8952;SDS011;4511;50.890;8.054;2023-04-07T14:12:10;3.10;;;2.30;;
8952;SDS011;4511;50.890;8.054;2023-04-07T14:14:37;2.17;;;2.07;;
8952;SDS011;4511;50.890;8.054;2023-04-07T14:17:03;2.40;;;2.20;;
8952;SDS011;4511;50.890;8.054;2023-04-07T14:19:30;2.50;;;2.30;;
8952;SDS011;4511;50.890;8.054;2023-04-07T14:22:00;2.33;;;2.03;;
8952;SDS011;4511;50.890;8.054;2023-04-07T14:24:27;2.10;;;2.00;;
8952;SDS011;4511;50.890;8.054;2023-04-07T14:26:53;2.03;;;1.93;;
8952;SDS011;4511;50.890;8.054;2023-04-07T14:29:20;2.57;;;2.37;;
8952;SDS011;4511;50.890;8.054;2023-04-07T14:31:47;2.43;;;2.20;;
8952;SDS011;4511;50.890;8.054;2023-04-07T14:34:15;2.40;;;2.30;;
8952;SDS011;4511;50.890;8.054;2023-04-07T14:36:42;2.37;;;2.17;;
8952;SDS011;4511;50.890;8.054;2023-04-07T14:39:19;1.90;;;1.80;;
8952;SDS011;4511;50.890;8.054;2023-04-07T14:41:46;2.10;;;2.00;;
8952;SDS011;4511;50.890;8.054;2023-04-07T14:44:13;2.00;;;1.90;;
8952;SDS011;4511;50.890;8.054;2023-04-07T14:46:40;1.97;;;1.87;;
8952;SDS011;4511;50.890;8.054;2023-04-07T14:49:07;2.00;;;1.90;;
8952;SDS011;4511;50.890;8.054;2023-04-07T14:51:34;1.90;;;1.80;;
8952;SDS011;4511;50.890;8.054;2023-04-07T14:54:01;1.73;;;1.70;;
8952;SDS011;4511;50.890;8.054;2023-04-07T14:56:29;2.70;;;2.50;;
8952;SDS011;4511;50.890;8.054;2023-04-07T14:58:56;1.93;;;1.83;;
8952;SDS011;4511;50.890;8.054;2023-04-07T15:01:23;1.90;;;1.80;;
8952;SDS011;4511;50.890;8.054;2023-04-07T15:03:49;1.90;;;1.80;;
8952;SDS011;4511;50.890;8.054;2023-04-07T15:06:17;2.40;;;2.30;;
8952;SDS011;4511;50.890;8.054;2023-04-07T15:08:44;2.37;;;2.27;;
8952;SDS011;4511;50.890;8.054;2023-04-07T15:11:11;2.00;;;1.90;;
8952;SDS011;4511;50.890;8.054;2023-04-07T15:13:40;1.90;;;1.80;;
8952;SDS011;4511;50.890;8.054;2023-04-07T15:16:07;1.90;;;1.80;;
8952;SDS011;4511;50.890;8.054;2023-04-07T15:18:36;1.80;;;1.70;;
8952;SDS011;4511;50.890;8.054;2023-04-07T15:21:04;1.93;;;1.83;;
8952;SDS011;4511;50.890;8.054;2023-04-07T15:23:31;1.90;;;1.80;;
8952;SDS011;4511;50.890;8.054;2023-04-07T15:25:58;1.80;;;1.70;;
8952;SDS011;4511;50.890;8.054;2023-04-07T15:28:25;1.87;;;1.77;;